Terminal Aerodrome Forecast
Issued by NWS Upton, NY

Home | Current Version | Previous Version | Text Only | Print | Product List | Glossary On
Versions: 1 2 3 4 5 6 7 8 9 10 11 12 13 14 15 16 17 18 19 20 21 22 23 24 25 26 27 28 29
000
FTUS41 KOKX 291915 AAA
TAFBDR
TAF AMD
KBDR 291915Z 2919/3018 31009KT P6SM SKC
     FM292100 25009KT P6SM FEW250
     FM300000 21005KT P6SM SCT250
     FM300900 21006KT P6SM OVC100
     FM301100 22009KT P6SM OVC050
     FM301400 24013KT P6SM SCT020 OVC050=

USA.gov is the U.S. government's official web portal to all federal, state and local government web resources and services.